sensor_id;sensor_type;location;lat;lon;timestamp;pressure;altitude;pressure_sealevel;temperature;humidity
27705;BME280;15109;50.992;6.918;2023-01-28T00:01:25;102175.56;;;3.30;100.00
27705;BME280;15109;50.992;6.918;2023-01-28T00:04:49;102175.88;;;3.26;100.00
27705;BME280;15109;50.992;6.918;2023-01-28T00:08:11;102184.19;;;3.23;100.00
27705;BME280;15109;50.992;6.918;2023-01-28T00:11:34;102181.97;;;3.15;100.00
27705;BME280;15109;50.992;6.918;2023-01-28T00:14:55;102175.16;;;3.09;100.00
27705;BME280;15109;50.992;6.918;2023-01-28T00:18:16;102180.66;;;3.08;100.00
27705;BME280;15109;50.992;6.918;2023-01-28T00:21:38;102178.75;;;3.10;100.00
27705;BME280;15109;50.992;6.918;2023-01-28T00:25:00;102170.38;;;3.00;100.00
27705;BME280;15109;50.992;6.918;2023-01-28T00:28:21;102169.50;;;3.00;100.00
27705;BME280;15109;50.992;6.918;2023-01-28T00:31:42;102166.16;;;2.96;100.00
27705;BME280;15109;50.992;6.918;2023-01-28T00:35:03;102160.19;;;2.91;100.00
27705;BME280;15109;50.992;6.918;2023-01-28T00:38:24;102155.88;;;2.89;100.00
27705;BME280;15109;50.992;6.918;2023-01-28T00:41:45;102160.59;;;2.85;100.00
27705;BME280;15109;50.992;6.918;2023-01-28T00:45:07;102167.72;;;2.86;100.00
27705;BME280;15109;50.992;6.918;2023-01-28T00:48:28;102168.03;;;2.82;100.00
27705;BME280;15109;50.992;6.918;2023-01-28T00:51:49;102168.91;;;2.82;100.00
27705;BME280;15109;50.992;6.918;2023-01-28T00:55:10;102173.63;;;2.79;100.00
27705;BME280;15109;50.992;6.918;2023-01-28T00:58:31;102172.78;;;2.78;100.00
27705;BME280;15109;50.992;6.918;2023-01-28T01:01:52;102175.97;;;2.70;100.00
27705;BME280;15109;50.992;6.918;2023-01-28T01:05:32;102158.63;;;2.60;100.00
27705;BME280;15109;50.992;6.918;2023-01-28T01:08:54;102158.63;;;2.60;100.00
27705;BME280;15109;50.992;6.918;2023-01-28T01:12:15;102162.50;;;2.56;100.00
27705;BME280;15109;50.992;6.918;2023-01-28T01:15:37;102153.97;;;2.50;100.00
27705;BME280;15109;50.992;6.918;2023-01-28T01:18:58;102164.94;;;2.47;100.00
27705;BME280;15109;50.992;6.918;2023-01-28T01:22:20;102177.69;;;2.45;100.00
27705;BME280;15109;50.992;6.918;2023-01-28T01:25:41;102178.72;;;2.42;100.00
27705;BME280;15109;50.992;6.918;2023-01-28T01:29:04;102177.69;;;2.31;100.00
27705;BME280;15109;50.992;6.918;2023-01-28T01:32:28;102172.78;;;2.23;100.00
27705;BME280;15109;50.992;6.918;2023-01-28T01:35:52;102178.56;;;2.17;100.00
27705;BME280;15109;50.992;6.918;2023-01-28T01:39:15;102175.19;;;2.13;100.00
27705;BME280;15109;50.992;6.918;2023-01-28T01:42:36;102177.03;;;2.13;100.00
27705;BME280;15109;50.992;6.918;2023-01-28T01:45:59;102176.06;;;2.14;100.00
27705;BME280;15109;50.992;6.918;2023-01-28T01:49:22;102171.16;;;2.06;100.00
27705;BME280;15109;50.992;6.918;2023-01-28T01:52:43;102166.91;;;1.88;100.00
27705;BME280;15109;50.992;6.918;2023-01-28T01:56:05;102168.34;;;1.79;100.00
27705;BME280;15109;50.992;6.918;2023-01-28T01:59:29;102180.97;;;1.79;100.00
27705;BME280;15109;50.992;6.918;2023-01-28T02:02:50;102181.44;;;1.86;100.00
27705;BME280;15109;50.992;6.918;2023-01-28T02:06:13;102180.41;;;1.88;100.00
27705;BME280;15109;50.992;6.918;2023-01-28T02:09:35;102176.75;;;1.89;100.00
27705;BME280;15109;50.992;6.918;2023-01-28T02:13:01;102179.44;;;1.89;100.00
27705;BME280;15109;50.992;6.918;2023-01-28T02:16:22;102186.47;;;1.92;100.00
27705;BME280;15109;50.992;6.918;2023-01-28T02:20:29;102183.00;;;1.90;100.00
27705;BME280;15109;50.992;6.918;2023-01-28T02:27:10;102187.31;;;1.78;100.00
27705;BME280;15109;50.992;6.918;2023-01-28T02:31:37;102176.91;;;1.72;100.00
27705;BME280;15109;50.992;6.918;2023-01-28T02:34:35;102190.97;;;1.77;100.00
27705;BME280;15109;50.992;6.918;2023-01-28T02:37:59;102193.56;;;1.78;100.00
27705;BME280;15109;50.992;6.918;2023-01-28T02:41:31;102195.13;;;1.82;100.00
27705;BME280;15109;50.992;6.918;2023-01-28T02:44:52;102194.38;;;1.80;100.00
27705;BME280;15109;50.992;6.918;2023-01-28T02:48:14;102195.31;;;1.79;100.00
27705;BME280;15109;50.992;6.918;2023-01-28T02:55:13;102201.88;;;1.90;100.00
27705;BME280;15109;50.992;6.918;2023-01-28T02:58:39;102209.00;;;1.91;100.00
27705;BME280;15109;50.992;6.918;2023-01-28T03:05:39;102220.69;;;2.05;100.00
27705;BME280;15109;50.992;6.918;2023-01-28T03:09:06;102229.06;;;2.15;100.00
27705;BME280;15109;50.992;6.918;2023-01-28T03:12:44;102222.59;;;2.17;100.00
27705;BME280;15109;50.992;6.918;2023-01-28T03:16:30;102233.78;;;2.25;100.00
27705;BME280;15109;50.992;6.918;2023-01-28T03:20:12;102231.75;;;2.29;100.00
27705;BME280;15109;50.992;6.918;2023-01-28T03:23:56;102228.59;;;2.37;100.00
27705;BME280;15109;50.992;6.918;2023-01-28T03:27:44;102229.13;;;2.42;100.00
27705;BME280;15109;50.992;6.918;2023-01-28T03:31:27;102220.94;;;2.43;100.00
27705;BME280;15109;50.992;6.918;2023-01-28T03:35:08;102231.25;;;2.51;100.00
27705;BME280;15109;50.992;6.918;2023-01-28T03:38:50;102216.78;;;2.52;100.00
27705;BME280;15109;50.992;6.918;2023-01-28T03:42:12;102224.59;;;2.56;100.00
27705;BME280;15109;50.992;6.918;2023-01-28T03:46:02;102225.38;;;2.58;100.00
27705;BME280;15109;50.992;6.918;2023-01-28T03:49:23;102225.28;;;2.60;100.00
27705;BME280;15109;50.992;6.918;2023-01-28T03:52:45;102218.44;;;2.54;100.00
27705;BME280;15109;50.992;6.918;2023-01-28T03:56:29;102226.25;;;2.59;100.00
27705;BME280;15109;50.992;6.918;2023-01-28T03:59:57;102229.63;;;2.62;100.00
27705;BME280;15109;50.992;6.918;2023-01-28T04:03:19;102227.00;;;2.61;100.00
27705;BME280;15109;50.992;6.918;2023-01-28T04:06:47;102230.38;;;2.64;100.00
27705;BME280;15109;50.992;6.918;2023-01-28T04:10:28;102236.66;;;2.65;100.00
27705;BME280;15109;50.992;6.918;2023-01-28T04:13:55;102237.31;;;2.68;100.00
27705;BME280;15109;50.992;6.918;2023-01-28T04:17:18;102242.63;;;2.70;100.00
27705;BME280;15109;50.992;6.918;2023-01-28T04:20:40;102243.59;;;2.69;100.00
27705;BME280;15109;50.992;6.918;2023-01-28T04:24:02;102239.13;;;2.68;100.00
27705;BME280;15109;50.992;6.918;2023-01-28T04:27:25;102242.81;;;2.67;100.00
27705;BME280;15109;50.992;6.918;2023-01-28T04:30:47;102248.78;;;2.72;100.00
27705;BME280;15109;50.992;6.918;2023-01-28T04:34:21;102250.81;;;2.68;100.00
27705;BME280;15109;50.992;6.918;2023-01-28T04:37:48;102256.03;;;2.71;100.00
27705;BME280;15109;50.992;6.918;2023-01-28T04:41:23;102260.56;;;2.71;100.00
27705;BME280;15109;50.992;6.918;2023-01-28T04:44:45;102269.72;;;2.68;100.00
27705;BME280;15109;50.992;6.918;2023-01-28T04:48:26;102263.84;;;2.76;100.00
27705;BME280;15109;50.992;6.918;2023-01-28T04:52:22;102264.69;;;2.77;100.00
27705;BME280;15109;50.992;6.918;2023-01-28T04:55:57;102265.25;;;2.82;100.00
27705;BME280;15109;50.992;6.918;2023-01-28T04:59:20;102278.00;;;2.80;100.00
27705;BME280;15109;50.992;6.918;2023-01-28T05:02:45;102265.25;;;2.82;100.00
27705;BME280;15109;50.992;6.918;2023-01-28T05:06:06;102270.66;;;2.82;100.00
27705;BME280;15109;50.992;6.918;2023-01-28T05:09:33;102263.44;;;2.82;100.00
27705;BME280;15109;50.992;6.918;2023-01-28T05:12:57;102265.53;;;2.91;100.00
27705;BME280;15109;50.992;6.918;2023-01-28T05:16:18;102269.19;;;2.90;100.00
27705;BME280;15109;50.992;6.918;2023-01-28T05:19:40;102271.16;;;2.88;100.00
27705;BME280;15109;50.992;6.918;2023-01-28T05:23:07;102272.47;;;2.95;100.00
27705;BME280;15109;50.992;6.918;2023-01-28T05:26:46;102270.06;;;2.91;100.00
27705;BME280;15109;50.992;6.918;2023-01-28T05:30:08;102269.56;;;2.98;100.00
27705;BME280;15109;50.992;6.918;2023-01-28T05:33:29;102273.84;;;2.88;100.00
27705;BME280;15109;50.992;6.918;2023-01-28T05:36:51;102272.03;;;2.89;100.00
27705;BME280;15109;50.992;6.918;2023-01-28T05:40:28;102258.59;;;2.87;100.00
27705;BME280;15109;50.992;6.918;2023-01-28T05:43:49;102263.78;;;2.90;100.00
27705;BME280;15109;50.992;6.918;2023-01-28T05:47:33;102268.63;;;2.85;100.00
27705;BME280;15109;50.992;6.918;2023-01-28T05:51:29;102273.72;;;2.90;100.00
27705;BME280;15109;50.992;6.918;2023-01-28T05:54:52;102279.25;;;2.88;100.00
27705;BME280;15109;50.992;6.918;2023-01-28T05:58:13;102278.25;;;2.89;100.00
27705;BME280;15109;50.992;6.918;2023-01-28T06:01:35;102289.47;;;2.83;100.00
27705;BME280;15109;50.992;6.918;2023-01-28T06:04:56;102291.09;;;2.86;100.00
27705;BME280;15109;50.992;6.918;2023-01-28T06:08:17;102300.59;;;2.79;100.00
27705;BME280;15109;50.992;6.918;2023-01-28T06:11:39;102304.44;;;2.74;100.00
27705;BME280;15109;50.992;6.918;2023-01-28T06:15:01;102297.72;;;2.67;100.00
27705;BME280;15109;50.992;6.918;2023-01-28T06:18:45;102295.97;;;2.66;100.00
27705;BME280;15109;50.992;6.918;2023-01-28T06:22:06;102293.25;;;2.66;100.00
27705;BME280;15109;50.992;6.918;2023-01-28T06:25:27;102304.81;;;2.68;100.00
27705;BME280;15109;50.992;6.918;2023-01-28T06:28:52;102300.28;;;2.69;100.00
27705;BME280;15109;50.992;6.918;2023-01-28T06:32:13;102308.41;;;2.69;100.00
27705;BME280;15109;50.992;6.918;2023-01-28T06:35:34;102300.28;;;2.69;100.00
27705;BME280;15109;50.992;6.918;2023-01-28T06:38:55;102303.66;;;2.72;100.00
27705;BME280;15109;50.992;6.918;2023-01-28T06:42:16;102308.19;;;2.72;100.00
27705;BME280;15109;50.992;6.918;2023-01-28T06:45:36;102297.28;;;2.73;100.00
27705;BME280;15109;50.992;6.918;2023-01-28T06:48:57;102287.56;;;2.71;100.00
27705;BME280;15109;50.992;6.918;2023-01-28T06:52:18;102296.53;;;2.71;100.00
27705;BME280;15109;50.992;6.918;2023-01-28T06:55:39;102301.81;;;2.73;100.00
27705;BME280;15109;50.992;6.918;2023-01-28T06:59:00;102303.78;;;2.71;100.00
27705;BME280;15109;50.992;6.918;2023-01-28T07:02:21;102307.34;;;2.71;100.00
27705;BME280;15109;50.992;6.918;2023-01-28T07:05:42;102307.34;;;2.71;100.00
27705;BME280;15109;50.992;6.918;2023-01-28T07:09:02;102307.34;;;2.71;100.00
27705;BME280;15109;50.992;6.918;2023-01-28T07:12:23;102311.09;;;2.69;100.00
27705;BME280;15109;50.992;6.918;2023-01-28T07:15:47;102319.88;;;2.72;100.00
27705;BME280;15109;50.992;6.918;2023-01-28T07:19:09;102317.16;;;2.72;100.00
27705;BME280;15109;50.992;6.918;2023-01-28T07:22:30;102315.44;;;2.71;100.00
27705;BME280;15109;50.992;6.918;2023-01-28T07:25:50;102310.13;;;2.70;100.00
27705;BME280;15109;50.992;6.918;2023-01-28T07:29:12;102313.13;;;2.65;100.00
27705;BME280;15109;50.992;6.918;2023-01-28T07:32:34;102305.09;;;2.64;100.00
27705;BME280;15109;50.992;6.918;2023-01-28T07:35:55;102317.56;;;2.66;100.00
27705;BME280;15109;50.992;6.918;2023-01-28T07:39:16;102318.44;;;2.67;100.00
27705;BME280;15109;50.992;6.918;2023-01-28T07:42:38;102305.81;;;2.67;100.00
27705;BME280;15109;50.992;6.918;2023-01-28T07:46:00;102307.63;;;2.67;100.00
27705;BME280;15109;50.992;6.918;2023-01-28T07:49:30;102307.63;;;2.67;100.00
27705;BME280;15109;50.992;6.918;2023-01-28T07:52:51;102298.66;;;2.66;100.00
27705;BME280;15109;50.992;6.918;2023-01-28T07:56:12;102309.34;;;2.68;100.00
27705;BME280;15109;50.992;6.918;2023-01-28T07:59:34;102318.91;;;2.73;100.00
27705;BME280;15109;50.992;6.918;2023-01-28T08:02:59;102315.34;;;2.73;100.00
27705;BME280;15109;50.992;6.918;2023-01-28T08:06:20;102323.44;;;2.73;100.00
27705;BME280;15109;50.992;6.918;2023-01-28T08:09:42;102327.50;;;2.80;100.00
27705;BME280;15109;50.992;6.918;2023-01-28T08:13:03;102336.75;;;2.76;100.00
27705;BME280;15109;50.992;6.918;2023-01-28T08:16:24;102342.06;;;2.78;100.00
27705;BME280;15109;50.992;6.918;2023-01-28T08:19:45;102362.69;;;2.79;100.00
27705;BME280;15109;50.992;6.918;2023-01-28T08:23:11;102348.41;;;2.77;100.00
27705;BME280;15109;50.992;6.918;2023-01-28T08:26:32;102347.25;;;2.81;100.00
27705;BME280;15109;50.992;6.918;2023-01-28T08:29:53;102347.25;;;2.81;100.00
27705;BME280;15109;50.992;6.918;2023-01-28T08:33:15;102348.81;;;2.85;100.00
27705;BME280;15109;50.992;6.918;2023-01-28T08:36:36;102356.94;;;2.85;100.00
27705;BME280;15109;50.992;6.918;2023-01-28T08:39:59;102362.22;;;2.86;100.00
27705;BME280;15109;50.992;6.918;2023-01-28T08:43:20;102360.66;;;2.82;100.00
27705;BME280;15109;50.992;6.918;2023-01-28T08:46:41;102365.50;;;2.91;100.00
27705;BME280;15109;50.992;6.918;2023-01-28T08:50:03;102366.38;;;2.92;100.00
27705;BME280;15109;50.992;6.918;2023-01-28T08:53:25;102380.53;;;2.95;100.00
27705;BME280;15109;50.992;6.918;2023-01-28T08:56:48;102379.97;;;2.90;100.00
27705;BME280;15109;50.992;6.918;2023-01-28T09:00:09;102380.16;;;2.87;100.00
27705;BME280;15109;50.992;6.918;2023-01-28T09:03:30;102390.47;;;2.66;100.00
27705;BME280;15109;50.992;6.918;2023-01-28T09:06:51;102386.91;;;2.66;100.00
27705;BME280;15109;50.992;6.918;2023-01-28T09:10:13;102385.47;;;2.74;100.00
27705;BME280;15109;50.992;6.918;2023-01-28T09:13:38;102391.34;;;2.81;100.00
27705;BME280;15109;50.992;6.918;2023-01-28T09:17:05;102385.47;;;2.89;100.00
27705;BME280;15109;50.992;6.918;2023-01-28T09:20:27;102409.09;;;2.99;100.00
27705;BME280;15109;50.992;6.918;2023-01-28T09:23:49;102412.69;;;3.00;100.00
27705;BME280;15109;50.992;6.918;2023-01-28T09:27:10;102424.34;;;3.00;100.00
27705;BME280;15109;50.992;6.918;2023-01-28T09:30:31;102431.59;;;3.00;100.00
27705;BME280;15109;50.992;6.918;2023-01-28T09:33:52;102433.91;;;2.92;100.00
27705;BME280;15109;50.992;6.918;2023-01-28T09:37:16;102440.94;;;2.94;100.00
27705;BME280;15109;50.992;6.918;2023-01-28T09:40:41;102436.53;;;2.93;100.00
27705;BME280;15109;50.992;6.918;2023-01-28T09:44:05;102437.28;;;2.95;100.00
27705;BME280;15109;50.992;6.918;2023-01-28T09:50:51;102446.75;;;2.88;100.00
27705;BME280;15109;50.992;6.918;2023-01-28T09:57:46;102434.84;;;2.77;100.00
27705;BME280;15109;50.992;6.918;2023-01-28T10:18:43;102435.81;;;2.76;100.00
27705;BME280;15109;50.992;6.918;2023-01-28T10:22:15;102445.75;;;2.75;100.00
27705;BME280;15109;50.992;6.918;2023-01-28T10:25:40;102448.47;;;2.75;100.00
27705;BME280;15109;50.992;6.918;2023-01-28T10:29:16;102451.34;;;2.86;100.00
27705;BME280;15109;50.992;6.918;2023-01-28T10:32:37;102446.28;;;3.10;100.00
27705;BME280;15109;50.992;6.918;2023-01-28T10:36:04;102446.28;;;3.10;100.00
27705;BME280;15109;50.992;6.918;2023-01-28T10:39:26;102462.38;;;3.11;100.00
27705;BME280;15109;50.992;6.918;2023-01-28T10:42:47;102445.69;;;3.05;100.00
27705;BME280;15109;50.992;6.918;2023-01-28T10:49:29;102461.31;;;3.14;100.00
27705;BME280;15109;50.992;6.918;2023-01-28T10:56:15;102447.03;;;3.12;100.00
27705;BME280;15109;50.992;6.918;2023-01-28T10:59:39;102433.91;;;3.06;100.00
27705;BME280;15109;50.992;6.918;2023-01-28T11:03:01;102448.47;;;3.17;100.00
27705;BME280;15109;50.992;6.918;2023-01-28T11:06:26;102448.00;;;3.25;100.00
27705;BME280;15109;50.992;6.918;2023-01-28T11:09:48;102442.50;;;3.27;100.00
27705;BME280;15109;50.992;6.918;2023-01-28T11:13:14;102449.84;;;3.10;100.00
27705;BME280;15109;50.992;6.918;2023-01-28T11:16:37;102446.44;;;3.07;100.00
27705;BME280;15109;50.992;6.918;2023-01-28T11:20:10;102446.72;;;3.02;100.00
27705;BME280;15109;50.992;6.918;2023-01-28T11:23:46;102447.97;;;3.11;100.00
27705;BME280;15109;50.992;6.918;2023-01-28T11:27:11;102449.84;;;3.10;100.00
27705;BME280;15109;50.992;6.918;2023-01-28T11:30:38;102447.31;;;3.22;100.00
27705;BME280;15109;50.992;6.918;2023-01-28T11:34:00;102448.56;;;3.30;100.00
27705;BME280;15109;50.992;6.918;2023-01-28T11:37:23;102440.00;;;3.24;100.00
27705;BME280;15109;50.992;6.918;2023-01-28T11:40:57;102449.72;;;3.12;100.00
27705;BME280;15109;50.992;6.918;2023-01-28T11:44:20;102458.91;;;3.09;100.00
27705;BME280;15109;50.992;6.918;2023-01-28T11:47:50;102459.19;;;2.91;100.00
27705;BME280;15109;50.992;6.918;2023-01-28T11:51:27;102456.28;;;2.80;100.00
27705;BME280;15109;50.992;6.918;2023-01-28T12:08:45;102432.66;;;2.97;100.00
27705;BME280;15109;50.992;6.918;2023-01-28T12:12:25;102444.72;;;3.06;100.00
27705;BME280;15109;50.992;6.918;2023-01-28T12:15:54;102431.88;;;2.95;100.00
27705;BME280;15109;50.992;6.918;2023-01-28T12:19:23;102424.53;;;3.11;100.00
27705;BME280;15109;50.992;6.918;2023-01-28T12:26:22;102432.34;;;3.16;100.00
27705;BME280;15109;50.992;6.918;2023-01-28T12:29:49;102431.00;;;3.09;100.00
27705;BME280;15109;50.992;6.918;2023-01-28T12:33:17;102429.28;;;3.08;100.00
27705;BME280;15109;50.992;6.918;2023-01-28T12:47:11;102426.66;;;2.92;100.00
27705;BME280;15109;50.992;6.918;2023-01-28T12:50:52;102414.13;;;3.05;100.00
27705;BME280;15109;50.992;6.918;2023-01-28T12:54:18;102402.16;;;3.24;100.00
27705;BME280;15109;50.992;6.918;2023-01-28T12:57:41;102403.50;;;3.31;100.00
27705;BME280;15109;50.992;6.918;2023-01-28T13:01:04;102395.66;;;3.26;100.00
27705;BME280;15109;50.992;6.918;2023-01-28T13:04:41;102390.94;;;3.30;100.00
27705;BME280;15109;50.992;6.918;2023-01-28T13:08:09;102384.72;;;3.42;100.00
27705;BME280;15109;50.992;6.918;2023-01-28T13:11:34;102371.56;;;3.50;100.00
27705;BME280;15109;50.992;6.918;2023-01-28T13:14:55;102359.28;;;3.58;100.00
27705;BME280;15109;50.992;6.918;2023-01-28T13:18:29;102358.97;;;3.63;100.00
27705;BME280;15109;50.992;6.918;2023-01-28T13:21:52;102367.56;;;3.70;100.00
27705;BME280;15109;50.992;6.918;2023-01-28T13:25:23;102345.13;;;3.67;100.00
27705;BME280;15109;50.992;6.918;2023-01-28T13:28:49;102316.03;;;3.71;100.00
27705;BME280;15109;50.992;6.918;2023-01-28T13:32:28;102322.84;;;3.64;100.00
27705;BME280;15109;50.992;6.918;2023-01-28T13:35:52;102311.22;;;3.49;100.00
27705;BME280;15109;50.992;6.918;2023-01-28T13:39:17;102302.75;;;3.41;100.00
27705;BME280;15109;50.992;6.918;2023-01-28T13:42:39;102303.16;;;3.35;100.00
27705;BME280;15109;50.992;6.918;2023-01-28T13:46:04;102334.94;;;3.32;100.00
27705;BME280;15109;50.992;6.918;2023-01-28T13:49:31;102360.53;;;3.26;100.00
27705;BME280;15109;50.992;6.918;2023-01-28T13:52:55;102351.25;;;3.30;100.00
27705;BME280;15109;50.992;6.918;2023-01-28T13:56:19;102335.84;;;3.18;100.00
27705;BME280;15109;50.992;6.918;2023-01-28T14:10:07;102356.09;;;3.11;100.00
27705;BME280;15109;50.992;6.918;2023-01-28T14:17:23;102393.25;;;3.22;100.00
27705;BME280;15109;50.992;6.918;2023-01-28T14:20:52;102393.34;;;3.34;100.00
27705;BME280;15109;50.992;6.918;2023-01-28T14:24:15;102388.72;;;3.36;100.00
27705;BME280;15109;50.992;6.918;2023-01-28T14:27:38;102395.75;;;3.39;100.00
27705;BME280;15109;50.992;6.918;2023-01-28T14:31:05;102385.88;;;3.38;100.00
27705;BME280;15109;50.992;6.918;2023-01-28T14:34:30;102390.34;;;3.25;100.00
27705;BME280;15109;50.992;6.918;2023-01-28T14:37:52;102392.69;;;3.16;100.00
27705;BME280;15109;50.992;6.918;2023-01-28T14:41:20;102383.13;;;3.11;100.00
27705;BME280;15109;50.992;6.918;2023-01-28T14:44:44;102381.03;;;3.02;100.00
27705;BME280;15109;50.992;6.918;2023-01-28T14:51:44;102375.84;;;2.85;100.00
27705;BME280;15109;50.992;6.918;2023-01-28T14:58:52;102366.47;;;2.62;100.00
27705;BME280;15109;50.992;6.918;2023-01-28T15:02:18;102366.25;;;2.51;100.00
27705;BME280;15109;50.992;6.918;2023-01-28T15:05:41;102363.66;;;2.49;100.00
27705;BME280;15109;50.992;6.918;2023-01-28T15:09:11;102363.94;;;2.45;100.00
27705;BME280;15109;50.992;6.918;2023-01-28T15:12:33;102361.00;;;2.34;100.00
27705;BME280;15109;50.992;6.918;2023-01-28T15:15:55;102346.75;;;2.32;100.00
27705;BME280;15109;50.992;6.918;2023-01-28T15:19:17;102335.56;;;2.23;100.00
27705;BME280;15109;50.992;6.918;2023-01-28T15:22:46;102344.69;;;2.21;100.00
27705;BME280;15109;50.992;6.918;2023-01-28T15:29:58;102342.75;;;2.09;100.00
27705;BME280;15109;50.992;6.918;2023-01-28T15:33:20;102342.53;;;1.98;100.00
27705;BME280;15109;50.992;6.918;2023-01-28T15:36:44;102340.19;;;1.92;100.00
27705;BME280;15109;50.992;6.918;2023-01-28T15:40:16;102350.50;;;1.85;100.00
27705;BME280;15109;50.992;6.918;2023-01-28T15:43:45;102360.22;;;1.88;100.00
27705;BME280;15109;50.992;6.918;2023-01-28T15:47:16;102361.16;;;1.87;100.00
27705;BME280;15109;50.992;6.918;2023-01-28T15:50:41;102367.69;;;1.82;100.00
27705;BME280;15109;50.992;6.918;2023-01-28T15:54:07;102366.81;;;1.98;100.00
27705;BME280;15109;50.992;6.918;2023-01-28T15:57:32;102362.09;;;2.01;100.00
27705;BME280;15109;50.992;6.918;2023-01-28T16:01:18;102367.44;;;1.87;100.00
27705;BME280;15109;50.992;6.918;2023-01-28T16:04:37;102370.84;;;1.75;100.00
27705;BME280;15109;50.992;6.918;2023-01-28T16:08:01;102367.41;;;1.57;100.00
27705;BME280;15109;50.992;6.918;2023-01-28T16:11:25;102378.22;;;1.42;100.00
27705;BME280;15109;50.992;6.918;2023-01-28T16:18:26;102394.28;;;1.27;100.00
27705;BME280;15109;50.992;6.918;2023-01-28T16:21:51;102392.41;;;1.12;100.00
27705;BME280;15109;50.992;6.918;2023-01-28T16:25:29;102398.50;;;1.00;100.00
27705;BME280;15109;50.992;6.918;2023-01-28T16:28:54;102416.19;;;0.88;100.00
27705;BME280;15109;50.992;6.918;2023-01-28T16:35:50;102409.91;;;0.72;100.00
27705;BME280;15109;50.992;6.918;2023-01-28T16:39:12;102429.88;;;0.68;100.00
27705;BME280;15109;50.992;6.918;2023-01-28T16:42:34;102438.56;;;0.73;100.00
27705;BME280;15109;50.992;6.918;2023-01-28T16:45:56;102463.03;;;0.86;100.00
27705;BME280;15109;50.992;6.918;2023-01-28T16:49:16;102462.91;;;0.87;100.00
27705;BME280;15109;50.992;6.918;2023-01-28T16:52:38;102464.16;;;0.98;100.00
27705;BME280;15109;50.992;6.918;2023-01-28T16:55:59;102463.31;;;0.97;100.00
27705;BME280;15109;50.992;6.918;2023-01-28T16:59:20;102473.28;;;0.95;100.00
27705;BME280;15109;50.992;6.918;2023-01-28T17:02:41;102469.09;;;0.89;100.00
27705;BME280;15109;50.992;6.918;2023-01-28T17:06:02;102473.16;;;0.81;100.00
27705;BME280;15109;50.992;6.918;2023-01-28T17:09:22;102476.25;;;0.73;100.00
27705;BME280;15109;50.992;6.918;2023-01-28T17:12:45;102477.69;;;0.63;100.00
27705;BME280;15109;50.992;6.918;2023-01-28T17:16:08;102488.13;;;0.52;100.00
27705;BME280;15109;50.992;6.918;2023-01-28T17:19:30;102485.06;;;0.42;100.00
27705;BME280;15109;50.992;6.918;2023-01-28T17:22:50;102459.56;;;0.32;100.00
27705;BME280;15109;50.992;6.918;2023-01-28T17:26:12;102463.59;;;0.24;100.00
27705;BME280;15109;50.992;6.918;2023-01-28T17:29:33;102454.16;;;0.15;100.00
27705;BME280;15109;50.992;6.918;2023-01-28T17:32:55;102461.28;;;0.16;100.00
27705;BME280;15109;50.992;6.918;2023-01-28T17:36:16;102459.06;;;0.07;100.00
27705;BME280;15109;50.992;6.918;2023-01-28T17:39:38;102451.94;;;0.06;100.00
27705;BME280;15109;50.992;6.918;2023-01-28T17:43:00;102447.88;;;-0.03;100.00
27705;BME280;15109;50.992;6.918;2023-01-28T17:46:22;102439.97;;;-0.06;100.00
27705;BME280;15109;50.992;6.918;2023-01-28T17:49:46;102442.91;;;-0.10;100.00
27705;BME280;15109;50.992;6.918;2023-01-28T17:53:10;102452.06;;;-0.14;100.00
27705;BME280;15109;50.992;6.918;2023-01-28T17:56:32;102452.94;;;-0.14;100.00
27705;BME280;15109;50.992;6.918;2023-01-28T17:59:53;102448.50;;;-0.15;100.00
27705;BME280;15109;50.992;6.918;2023-01-28T18:03:15;102447.84;;;-0.20;100.00
27705;BME280;15109;50.992;6.918;2023-01-28T18:06:36;102447.13;;;-0.23;100.00
27705;BME280;15109;50.992;6.918;2023-01-28T18:09:57;102458.06;;;-0.26;100.00
27705;BME280;15109;50.992;6.918;2023-01-28T18:13:18;102491.75;;;-0.19;100.00
27705;BME280;15109;50.992;6.918;2023-01-28T18:16:39;102507.22;;;-0.24;100.00
27705;BME280;15109;50.992;6.918;2023-01-28T18:20:01;102514.41;;;-0.25;100.00
27705;BME280;15109;50.992;6.918;2023-01-28T18:23:23;102511.00;;;-0.28;100.00
27705;BME280;15109;50.992;6.918;2023-01-28T18:26:44;102499.38;;;-0.29;100.00
27705;BME280;15109;50.992;6.918;2023-01-28T18:30:06;102514.78;;;-0.32;100.00
27705;BME280;15109;50.992;6.918;2023-01-28T18:33:28;102502.44;;;-0.36;100.00
27705;BME280;15109;50.992;6.918;2023-01-28T18:36:49;102501.00;;;-0.43;100.00
27705;BME280;15109;50.992;6.918;2023-01-28T18:40:10;102527.75;;;-0.42;100.00
27705;BME280;15109;50.992;6.918;2023-01-28T18:43:31;102520.94;;;-0.49;100.00
27705;BME280;15109;50.992;6.918;2023-01-28T18:46:55;102525.44;;;-0.50;100.00
27705;BME280;15109;50.992;6.918;2023-01-28T18:50:17;102527.19;;;-0.49;100.00
27705;BME280;15109;50.992;6.918;2023-01-28T18:53:38;102511.78;;;-0.45;100.00
27705;BME280;15109;50.992;6.918;2023-01-28T18:56:59;102518.31;;;-0.51;100.00
27705;BME280;15109;50.992;6.918;2023-01-28T19:00:21;102530.00;;;-0.52;100.00
27705;BME280;15109;50.992;6.918;2023-01-28T19:03:42;102541.06;;;-0.58;100.00
27705;BME280;15109;50.992;6.918;2023-01-28T19:07:03;102529.00;;;-0.49;100.00
27705;BME280;15109;50.992;6.918;2023-01-28T19:10:24;102532.69;;;-0.52;100.00
27705;BME280;15109;50.992;6.918;2023-01-28T19:13:45;102531.41;;;-0.62;100.00
27705;BME280;15109;50.992;6.918;2023-01-28T19:17:06;102529.13;;;-0.71;100.00
27705;BME280;15109;50.992;6.918;2023-01-28T19:20:27;102537.53;;;-0.60;100.00
27705;BME280;15109;50.992;6.918;2023-01-28T19:23:52;102528.84;;;-0.65;100.00
27705;BME280;15109;50.992;6.918;2023-01-28T19:27:14;102529.28;;;-0.74;100.00
27705;BME280;15109;50.992;6.918;2023-01-28T19:30:36;102545.59;;;-0.78;100.00